Time;durP1;ratioP1;P1;durP2;ratioP2;P2;SDS_P1;SDS_P2;PMS_P1;PMS_P2;Temp;Humidity;BMP_temperature;BMP_pressure;BME280_temperature;BME280_humidity;BME280_pressure;Samples;Min_cycle;Max_cycle;Signal;HPM_P1;HPM_P2
2021/03/13 00:00:19;;;;;;;2.70;2.33;;;;;;;6.81;68.81;95716.44;5017579;28;20064;-50
2021/03/13 00:02:46;;;;;;;6.95;2.70;;;;;;;6.79;71.48;95734.13;5063555;28;20040;-49
2021/03/13 00:05:15;;;;;;;4.80;2.55;;;;;;;6.75;71.26;95724.91;5028053;28;20056;-49
2021/03/13 00:07:42;;;;;;;2.70;2.50;;;;;;;6.76;70.23;95718.69;5066478;28;20165;-47
2021/03/13 00:10:11;;;;;;;3.42;2.72;;;;;;;6.95;66.65;95723.06;5044925;28;20610;-52
2021/03/13 00:12:38;;;;;;;3.20;2.80;;;;;;;6.80;70.30;95718.25;5064727;28;20508;-49
2021/03/13 00:15:06;;;;;;;5.25;2.53;;;;;;;6.93;68.29;95719.75;5029885;28;20086;-51
2021/03/13 00:17:33;;;;;;;3.97;2.40;;;;;;;6.92;66.52;95713.69;5064332;28;20044;-49
2021/03/13 00:20:00;;;;;;;3.22;2.58;;;;;;;6.97;66.05;95721.94;5032371;28;20049;-48
2021/03/13 00:22:27;;;;;;;2.50;2.30;;;;;;;7.00;64.51;95721.69;5057639;28;20040;-48
2021/03/13 00:24:54;;;;;;;4.00;2.30;;;;;;;6.91;67.81;95714.66;5010159;28;20044;-49
2021/03/13 00:27:22;;;;;;;3.38;2.60;;;;;;;6.86;66.20;95719.50;5071162;28;20051;-46
2021/03/13 00:29:49;;;;;;;4.10;2.40;;;;;;;6.99;63.72;95716.59;5027053;28;20041;-50
2021/03/13 00:32:16;;;;;;;4.55;2.70;;;;;;;7.08;63.49;95715.72;5066316;28;20047;-50
2021/03/13 00:34:43;;;;;;;3.40;2.42;;;;;;;6.85;66.45;95721.28;5033377;28;20041;-49
2021/03/13 00:37:11;;;;;;;3.25;2.38;;;;;;;6.92;67.42;95720.72;5065348;28;20048;-50
2021/03/13 00:39:42;;;;;;;3.60;2.40;;;;;;;7.01;65.71;95718.06;5019517;28;20024;-50
2021/03/13 00:42:09;;;;;;;4.47;2.53;;;;;;;7.00;64.33;95720.84;5063429;28;20033;-49
2021/03/13 00:44:37;;;;;;;2.85;2.65;;;;;;;7.06;66.63;95715.88;5064989;28;20045;-51
2021/03/13 00:47:04;;;;;;;3.00;2.63;;;;;;;7.06;66.14;95723.75;5027245;28;20056;-47
2021/03/13 00:49:31;;;;;;;2.75;2.25;;;;;;;7.12;65.49;95720.56;5072080;28;20060;-47
2021/03/13 00:52:00;;;;;;;3.88;2.40;;;;;;;7.03;68.66;95718.78;5022180;28;20048;-47
2021/03/13 00:54:27;;;;;;;2.80;2.30;;;;;;;7.15;66.56;95714.19;5065680;28;20040;-48
2021/03/13 00:56:54;;;;;;;2.47;2.10;;;;;;;7.22;63.71;95711.81;5030894;28;20043;-50
2021/03/13 00:59:21;;;;;;;2.95;2.40;;;;;;;7.15;68.56;95719.44;5062502;28;20072;-48
2021/03/13 01:01:48;;;;;;;4.63;2.75;;;;;;;7.07;68.97;95709.66;5031761;28;20036;-49
2021/03/13 01:04:16;;;;;;;3.13;2.35;;;;;;;7.32;64.57;95705.56;5063033;28;20125;-47
2021/03/13 01:06:42;;;;;;;4.40;2.15;;;;;;;7.25;65.82;95708.91;5022024;28;20045;-49
2021/03/13 01:09:09;;;;;;;2.58;2.10;;;;;;;7.28;67.33;95693.72;5061980;28;20515;-49
2021/03/13 01:11:37;;;;;;;2.58;2.30;;;;;;;7.24;67.36;95683.69;5022751;28;20053;-52
2021/03/13 01:14:04;;;;;;;2.30;2.10;;;;;;;7.40;66.37;95683.91;5067043;28;20086;-48
2021/03/13 01:16:31;;;;;;;2.65;2.28;;;;;;;7.32;67.71;95689.84;5036135;28;20091;-48
2021/03/13 01:18:59;;;;;;;3.03;2.22;;;;;;;7.46;65.61;95675.44;5066666;28;20040;-49
2021/03/13 01:21:26;;;;;;;2.40;2.20;;;;;;;7.40;66.28;95683.03;5026168;28;20098;-48
2021/03/13 01:23:53;;;;;;;2.30;2.10;;;;;;;7.41;67.10;95679.47;5060153;28;20044;-47
2021/03/13 01:26:20;;;;;;;2.67;2.38;;;;;;;7.51;65.62;95670.59;5062630;28;20044;-52
2021/03/13 01:28:47;;;;;;;2.60;2.20;;;;;;;7.40;66.67;95675.19;5042570;28;20388;-47
2021/03/13 01:31:15;;;;;;;4.78;2.30;;;;;;;7.50;65.89;95668.94;5063796;28;20041;-53
2021/03/13 01:33:42;;;;;;;2.50;2.30;;;;;;;7.31;69.47;95685.56;5022062;28;20039;-54
2021/03/13 01:36:10;;;;;;;3.95;2.10;;;;;;;7.38;67.77;95683.22;5067940;28;20035;-47
2021/03/13 01:38:37;;;;;;;3.25;2.22;;;;;;;7.36;67.80;95687.75;5017893;28;20032;-50
2021/03/13 01:41:04;;;;;;;4.50;2.38;;;;;;;7.20;70.32;95682.31;5066622;28;20094;-52
2021/03/13 01:43:32;;;;;;;3.08;2.63;;;;;;;7.11;72.62;95695.28;5013310;28;20028;-53
2021/03/13 01:45:59;;;;;;;2.97;2.40;;;;;;;7.12;71.62;95696.97;5057108;28;20048;-53
2021/03/13 01:48:31;;;;;;;2.42;2.22;;;;;;;7.09;72.75;95691.19;5034203;28;20127;-52
2021/03/13 01:50:58;;;;;;;3.03;2.30;;;;;;;7.14;69.06;95696.81;5055782;28;20040;-51
2021/03/13 01:53:26;;;;;;;2.95;2.42;;;;;;;7.03;71.82;95697.81;5009710;28;20043;-51
2021/03/13 01:55:54;;;;;;;3.75;2.58;;;;;;;7.00;73.77;95700.69;5064567;28;20518;-49
2021/03/13 01:58:21;;;;;;;2.83;2.55;;;;;;;6.95;72.40;95699.47;5018781;28;20388;-54
2021/03/13 02:00:50;;;;;;;2.78;2.42;;;;;;;6.90;71.15;95695.47;5059326;28;20048;-52
2021/03/13 02:03:17;;;;;;;2.55;2.35;;;;;;;6.81;74.15;95683.25;5015238;28;20484;-51
2021/03/13 02:05:46;;;;;;;4.07;2.40;;;;;;;6.97;72.18;95687.88;5047111;28;20044;-55
2021/03/13 02:08:20;;;;;;;4.88;2.67;;;;;;;7.09;70.47;95683.31;5009923;28;20043;-50
2021/03/13 02:10:54;;;;;;;2.58;2.20;;;;;;;7.21;68.16;95666.44;5066300;28;20106;-48
2021/03/13 02:13:26;;;;;;;2.60;2.40;;;;;;;7.23;68.59;95669.75;5025571;28;20484;-49
2021/03/13 02:16:02;;;;;;;2.20;2.10;;;;;;;7.11;73.15;95673.50;5053367;28;20048;-47
2021/03/13 02:18:34;;;;;;;2.58;2.25;;;;;;;7.22;70.42;95665.44;5029493;28;20039;-50
2021/03/13 02:21:05;;;;;;;2.58;2.38;;;;;;;7.13;74.92;95669.78;5045332;28;20061;-48
2021/03/13 02:23:43;;;;;;;2.53;2.33;;;;;;;7.18;72.66;95663.25;5059385;28;20430;-47
2021/03/13 02:26:24;;;;;;;2.88;2.40;;;;;;;7.21;72.78;95662.97;5057946;28;20040;-47
2021/03/13 02:28:55;;;;;;;2.47;2.30;;;;;;;7.16;73.26;95659.94;5040800;28;20040;-49
2021/03/13 02:31:41;;;;;;;2.80;2.53;;;;;;;7.05;73.30;95650.47;5063005;28;20377;-46
2021/03/13 02:34:09;;;;;;;3.58;2.20;;;;;;;6.97;73.82;95648.56;5026318;28;20059;-48
2021/03/13 02:36:37;;;;;;;2.60;2.35;;;;;;;7.06;73.72;95646.91;5062890;28;20052;-50
2021/03/13 02:39:06;;;;;;;2.50;2.30;;;;;;;6.93;77.17;95641.97;5062774;28;20044;-51
2021/03/13 02:41:35;;;;;;;2.50;2.30;;;;;;;6.89;78.26;95649.28;5030886;28;20087;-52
2021/03/13 02:44:04;;;;;;;3.47;2.40;;;;;;;6.83;79.70;95639.34;5060170;28;20053;-50
2021/03/13 02:46:36;;;;;;;3.08;2.47;;;;;;;6.93;78.76;95649.00;5028580;28;20063;-53
2021/03/13 02:49:05;;;;;;;4.65;2.60;;;;;;;6.95;79.46;95647.91;5049647;28;20095;-51
2021/03/13 02:51:33;;;;;;;3.42;2.45;;;;;;;6.80;81.78;95654.53;5015585;28;20039;-50
2021/03/13 02:54:00;;;;;;;2.90;2.60;;;;;;;6.92;81.46;95655.19;5048176;28;20037;-48
2021/03/13 02:56:28;;;;;;;2.75;2.38;;;;;;;7.09;79.01;95650.06;5023434;28;20048;-48
2021/03/13 02:58:56;;;;;;;3.63;2.55;;;;;;;6.98;81.66;95649.38;5042520;28;20040;-52
2021/03/13 03:01:26;;;;;;;3.97;2.65;;;;;;;6.91;82.78;95659.59;5032945;28;20040;-49
2021/03/13 03:03:53;;;;;;;;;;;;;;;6.84;84.85;95654.09;5059204;28;20036;-48
2021/03/13 03:06:22;;;;;;;2.53;2.33;;;;;;;6.82;87.08;95665.72;5030669;28;19920;-50
2021/03/13 03:08:49;;;;;;;3.55;2.30;;;;;;;6.76;88.29;95655.78;5063214;28;20072;-50
2021/03/13 03:11:19;;;;;;;3.10;2.50;;;;;;;6.75;87.61;95654.97;5016200;28;20075;-49
2021/03/13 03:13:47;;;;;;;2.63;2.42;;;;;;;6.83;86.83;95668.19;5060743;28;20121;-52
2021/03/13 03:16:15;;;;;;;3.97;2.45;;;;;;;6.93;86.63;95651.63;5020163;28;20467;-49
2021/03/13 03:18:42;;;;;;;2.83;2.50;;;;;;;6.90;87.02;95650.09;5064857;28;20408;-50
2021/03/13 03:21:10;;;;;;;2.67;2.45;;;;;;;6.85;88.04;95652.34;5029345;28;23374;-50
2021/03/13 03:23:38;;;;;;;2.90;2.40;;;;;;;6.90;87.31;95650.94;5055739;28;20496;-49
2021/03/13 03:26:06;;;;;;;3.00;2.70;;;;;;;6.88;89.55;95654.66;5030010;28;20374;-48
2021/03/13 03:28:32;;;;;;;2.63;2.42;;;;;;;6.89;87.59;95646.66;5073651;28;20052;-48
2021/03/13 03:30:59;;;;;;;3.05;2.45;;;;;;;6.78;90.45;95659.09;5061392;28;20083;-47
2021/03/13 03:33:27;;;;;;;3.53;2.50;;;;;;;6.86;90.19;95640.88;5029731;28;20048;-50
2021/03/13 03:35:54;;;;;;;4.20;2.60;;;;;;;6.95;91.49;95649.66;5061083;28;20404;-47
2021/03/13 03:38:21;;;;;;;2.50;2.30;;;;;;;6.85;92.13;95645.28;5012850;28;20094;-51
2021/03/13 03:40:49;;;;;;;4.18;2.35;;;;;;;6.69;97.96;95658.16;5070426;28;20496;-48
2021/03/13 03:43:21;;;;;;;2.35;2.22;;;;;;;6.73;98.23;95645.59;5019024;28;20072;-49
2021/03/13 03:45:52;;;;;;;2.60;2.40;;;;;;;6.65;97.92;95649.75;5059308;28;20056;-49
2021/03/13 03:48:20;;;;;;;5.53;2.80;;;;;;;6.69;98.55;95645.03;5021834;28;20037;-48
2021/03/13 03:50:48;;;;;;;2.72;2.53;;;;;;;6.67;98.72;95652.22;5063755;28;20128;-48
2021/03/13 03:53:18;;;;;;;3.03;2.30;;;;;;;6.50;100.00;95640.66;5029019;28;20076;-49
2021/03/13 03:55:50;;;;;;;2.40;2.25;;;;;;;6.61;100.00;95637.06;5065105;28;20037;-47
2021/03/13 03:58:20;;;;;;;3.45;2.50;;;;;;;6.70;100.00;95640.63;5032448;28;20094;-47
2021/03/13 04:00:47;;;;;;;3.42;2.55;;;;;;;6.74;100.00;95647.22;5061999;28;20053;-52
2021/03/13 04:03:15;;;;;;;4.15;2.50;;;;;;;6.62;100.00;95649.19;5027827;28;20543;-48
2021/03/13 04:05:43;;;;;;;3.63;2.60;;;;;;;6.59;100.00;95642.44;5060639;28;20049;-52
2021/03/13 04:08:11;;;;;;;2.30;2.20;;;;;;;6.51;100.00;95641.50;5024662;28;20468;-50
2021/03/13 04:10:41;;;;;;;2.65;2.40;;;;;;;6.56;100.00;95642.72;5071570;28;20422;-48
2021/03/13 04:13:09;;;;;;;3.15;2.40;;;;;;;6.52;100.00;95643.16;5028975;28;24054;-49
2021/03/13 04:15:36;;;;;;;3.80;2.40;;;;;;;6.49;100.00;95641.63;5064261;28;20040;-49
2021/03/13 04:18:03;;;;;;;3.88;2.50;;;;;;;6.48;100.00;95633.91;5035624;28;20063;-51
2021/03/13 04:20:30;;;;;;;4.50;2.72;;;;;;;6.50;100.00;95647.69;5059596;28;20036;-46
2021/03/13 04:22:59;;;;;;;3.17;2.60;;;;;;;6.43;100.00;95626.47;5055636;28;20060;-50
2021/03/13 04:25:27;;;;;;;2.67;2.47;;;;;;;6.41;100.00;95634.47;5023944;28;20514;-50
2021/03/13 04:27:53;;;;;;;3.92;2.40;;;;;;;6.43;100.00;95634.31;5070184;28;20500;-54
2021/03/13 04:30:22;;;;;;;3.10;2.67;;;;;;;6.38;100.00;95639.16;5025094;28;20508;-47
2021/03/13 04:32:52;;;;;;;3.47;3.10;;;;;;;6.36;100.00;95639.28;5066318;28;20466;-48
2021/03/13 04:35:20;;;;;;;3.22;2.60;;;;;;;6.33;100.00;95633.50;5024851;28;20041;-47
2021/03/13 04:37:47;;;;;;;3.83;2.67;;;;;;;6.33;100.00;95630.88;5071518;28;20076;-48
2021/03/13 04:40:15;;;;;;;3.47;2.70;;;;;;;6.32;100.00;95631.84;5028009;28;20045;-50
2021/03/13 04:42:43;;;;;;;5.35;2.30;;;;;;;6.38;100.00;95618.22;5064821;28;20461;-49
2021/03/13 04:45:11;;;;;;;4.78;2.40;;;;;;;6.42;100.00;95622.19;5035810;28;20520;-48
2021/03/13 04:47:42;;;;;;;2.85;2.60;;;;;;;6.32;100.00;95616.16;5059584;28;20059;-48
2021/03/13 04:50:10;;;;;;;3.55;2.67;;;;;;;6.42;100.00;95612.53;5025327;28;20060;-51
2021/03/13 04:52:37;;;;;;;3.22;2.45;;;;;;;6.55;100.00;95611.44;5065008;28;20060;-53
2021/03/13 04:55:05;;;;;;;3.65;2.88;;;;;;;6.44;100.00;95609.81;5020882;28;20056;-46
2021/03/13 04:57:32;;;;;;;3.53;2.33;;;;;;;6.40;100.00;95614.50;5066080;28;20044;-47
2021/03/13 04:59:58;;;;;;;4.00;2.50;;;;;;;6.52;100.00;95596.81;5029868;28;20455;-49
2021/03/13 05:02:25;;;;;;;2.60;2.40;;;;;;;6.47;100.00;95592.97;5066742;28;20095;-48
2021/03/13 05:04:53;;;;;;;2.58;2.40;;;;;;;6.47;100.00;95593.81;5035333;28;20128;-49
2021/03/13 05:07:21;;;;;;;2.65;2.30;;;;;;;6.44;100.00;95598.50;5064818;28;20497;-50
2021/03/13 05:09:47;;;;;;;3.25;2.53;;;;;;;6.40;100.00;95596.16;5067211;28;20052;-51
2021/03/13 05:12:15;;;;;;;2.50;2.20;;;;;;;6.52;100.00;95596.00;5030147;28;20090;-50
2021/03/13 05:14:41;;;;;;;2.58;2.38;;;;;;;6.55;100.00;95583.44;5064730;28;20036;-50
2021/03/13 05:17:08;;;;;;;3.58;2.30;;;;;;;6.56;100.00;95587.72;5024480;28;20037;-50
2021/03/13 05:19:35;;;;;;;3.95;2.55;;;;;;;6.70;100.00;95589.06;5068362;28;20041;-47
2021/03/13 05:22:03;;;;;;;4.28;2.30;;;;;;;6.58;100.00;95592.81;5018137;28;20059;-52
2021/03/13 05:24:30;;;;;;;2.88;2.60;;;;;;;6.71;100.00;95589.88;5059779;28;20045;-48
2021/03/13 05:26:57;;;;;;;3.55;2.20;;;;;;;6.69;100.00;95574.31;5025863;28;20671;-56
2021/03/13 05:29:24;;;;;;;3.03;2.40;;;;;;;6.73;100.00;95586.16;5065393;28;20052;-51
2021/03/13 05:31:51;;;;;;;3.00;2.60;;;;;;;6.91;98.49;95586.22;5030449;28;20085;-54
2021/03/13 05:34:18;;;;;;;3.05;2.40;;;;;;;6.83;98.22;95570.41;5059462;28;20124;-49
2021/03/13 05:36:45;;;;;;;2.78;2.58;;;;;;;6.86;99.15;95580.59;5030446;28;20033;-48
2021/03/13 05:39:13;;;;;;;3.45;2.70;;;;;;;6.97;94.19;95574.34;5063370;28;20040;-47
2021/03/13 05:41:41;;;;;;;2.25;2.13;;;;;;;6.98;93.43;95578.63;5020180;28;20045;-49
2021/03/13 05:44:08;;;;;;;2.88;2.60;;;;;;;7.04;92.16;95578.06;5063350;28;20047;-46
2021/03/13 05:46:36;;;;;;;3.30;2.40;;;;;;;6.93;93.22;95568.56;5026644;28;20274;-51
2021/03/13 05:49:05;;;;;;;2.65;2.38;;;;;;;6.90;93.37;95564.44;5062827;28;20052;-49
2021/03/13 05:51:34;;;;;;;4.30;2.40;;;;;;;6.89;92.34;95578.53;5058794;28;20484;-48
2021/03/13 05:54:03;;;;;;;2.60;2.33;;;;;;;6.89;91.96;95557.56;5030927;28;20094;-48
2021/03/13 05:56:31;;;;;;;2.88;2.60;;;;;;;6.86;91.18;95560.47;5059215;28;20041;-47
2021/03/13 05:58:59;;;;;;;2.42;2.20;;;;;;;7.00;88.74;95564.41;5035921;28;20048;-48
2021/03/13 06:01:27;;;;;;;2.85;2.25;;;;;;;7.01;88.63;95560.00;5048582;28;20040;-50
2021/03/13 06:03:54;;;;;;;2.47;2.28;;;;;;;7.09;86.71;95554.88;5021432;28;20040;-50
2021/03/13 06:06:21;;;;;;;2.50;2.30;;;;;;;7.02;88.01;95557.25;5060136;28;20381;-52
2021/03/13 06:08:49;;;;;;;2.42;2.17;;;;;;;7.07;90.84;95557.63;5019191;28;20086;-49
2021/03/13 06:11:17;;;;;;;2.65;2.45;;;;;;;7.12;88.01;95550.16;5064267;28;20055;-47
2021/03/13 06:13:45;;;;;;;3.20;2.30;;;;;;;7.16;87.02;95555.06;5028222;28;20374;-50
2021/03/13 06:16:12;;;;;;;2.40;2.20;;;;;;;7.17;87.04;95554.94;5060382;28;20040;-49
2021/03/13 06:18:52;;;;;;;2.63;2.42;;;;;;;7.16;86.90;95552.47;5029995;28;20135;-48
2021/03/13 06:21:23;;;;;;;4.40;2.53;;;;;;;7.33;86.86;95549.91;5061804;28;20028;-51
2021/03/13 06:23:55;;;;;;;2.63;2.20;;;;;;;7.29;86.07;95534.59;5022219;28;20048;-47
2021/03/13 06:26:22;;;;;;;2.60;2.33;;;;;;;7.32;84.92;95523.81;5063153;28;20048;-50
2021/03/13 06:28:52;;;;;;;2.90;2.65;;;;;;;7.45;84.88;95532.16;5023668;28;20032;-50
2021/03/13 06:31:23;;;;;;;2.38;2.10;;;;;;;7.51;83.97;95522.88;5061494;28;20484;-53
2021/03/13 06:33:50;;;;;;;2.10;2.00;;;;;;;7.57;82.42;95528.34;5051462;22;20126;-58
2021/03/13 06:36:25;;;;;;;2.25;2.13;;;;;;;7.64;82.73;95527.72;5062134;28;20056;-56
2021/03/13 06:38:53;;;;;;;3.20;2.45;;;;;;;7.76;82.16;95524.75;5035067;28;20051;-52
2021/03/13 06:41:22;;;;;;;2.30;2.10;;;;;;;7.76;79.97;95529.16;5064689;28;20110;-58
2021/03/13 06:43:51;;;;;;;2.33;2.13;;;;;;;7.79;80.18;95532.31;5038009;28;20047;-57
2021/03/13 06:46:19;;;;;;;3.72;2.20;;;;;;;7.91;78.89;95538.16;5077231;28;20146;-51
2021/03/13 06:48:48;;;;;;;2.20;2.00;;;;;;;7.74;79.84;95546.84;5078513;28;20102;-53
2021/03/13 06:51:33;;;;;;;2.47;1.95;;;;;;;7.88;76.69;95548.97;5056014;28;20076;-50
2021/03/13 06:54:09;;;;;;;2.00;1.85;;;;;;;8.02;76.31;95550.25;5082348;28;20503;-50
2021/03/13 06:56:39;;;;;;;2.35;2.00;;;;;;;7.87;78.38;95547.31;5079707;28;20059;-55
2021/03/13 06:59:29;;;;;;;1.95;1.85;;;;;;;7.90;77.65;95544.38;5082907;28;20044;-57
2021/03/13 07:02:00;;;;;;;2.60;2.28;;;;;;;7.99;80.88;95551.38;5077504;28;20059;-55
2021/03/13 07:04:36;;;;;;;2.33;1.90;;;;;;;8.20;78.02;95558.09;5061525;28;20046;-59
2021/03/13 07:07:04;;;;;;;1.90;1.80;;;;;;;8.11;79.28;95562.44;5077889;28;20093;-53
2021/03/13 07:09:49;;;;;;;2.40;1.98;;;;;;;8.15;75.52;95539.34;5082774;28;20085;-53
2021/03/13 07:12:28;;;;;;;1.90;1.80;;;;;;;8.27;76.31;95549.44;5095834;28;20036;-55
2021/03/13 07:14:58;;;;;;;2.05;1.90;;;;;;;8.31;79.79;95553.41;5049946;28;20032;-55
2021/03/13 07:17:26;;;;;;;2.15;1.90;;;;;;;8.29;75.36;95544.03;5082244;28;20040;-56
2021/03/13 07:19:53;;;;;;;2.85;1.80;;;;;;;8.36;78.74;95539.00;5080338;28;20126;-56
2021/03/13 07:22:21;;;;;;;2.55;1.90;;;;;;;8.45;76.61;95543.38;5034267;28;20051;-55
2021/03/13 07:24:55;;;;;;;2.22;1.80;;;;;;;8.46;81.49;95551.09;5082144;28;20101;-50
2021/03/13 07:27:23;;;;;;;1.80;1.70;;;;;;;8.69;79.19;95545.31;5037410;28;20065;-52
2021/03/13 07:29:51;;;;;;;2.60;2.10;;;;;;;8.76;76.98;95547.16;5085516;28;20130;-55
2021/03/13 07:32:22;;;;;;;1.98;1.88;;;;;;;8.40;77.61;95533.34;5051786;28;20047;-54
2021/03/13 07:34:50;;;;;;;2.17;1.90;;;;;;;8.37;80.50;95530.97;5051015;28;755578;-54
2021/03/13 07:37:18;;;;;;;1.90;1.80;;;;;;;8.40;84.42;95548.28;5049794;28;20040;-56
2021/03/13 07:39:47;;;;;;;3.63;2.17;;;;;;;8.37;83.61;95545.91;5082139;28;20568;-54
2021/03/13 07:42:17;;;;;;;1.90;1.80;;;;;;;8.42;82.89;95541.88;5044221;28;20063;-58
2021/03/13 07:44:45;;;;;;;2.00;1.77;;;;;;;8.42;80.58;95538.41;5077826;28;20048;-54
2021/03/13 07:47:16;;;;;;;2.10;2.00;;;;;;;8.53;77.49;95533.75;5040924;28;20064;-54
2021/03/13 07:49:45;;;;;;;3.55;2.00;;;;;;;8.87;79.85;95532.94;5086080;28;20097;-55
2021/03/13 07:52:13;;;;;;;2.38;2.00;;;;;;;9.01;75.20;95523.63;5043505;28;20043;-56
2021/03/13 07:54:43;;;;;;;2.42;1.80;;;;;;;9.05;73.55;95530.25;5085482;28;20526;-55
2021/03/13 07:57:14;;;;;;;2.08;1.67;;;;;;;9.30;75.19;95520.63;5044099;28;20063;-56
2021/03/13 07:59:43;;;;;;;1.60;1.50;;;;;;;9.36;71.35;95516.50;5084357;28;20535;-59
2021/03/13 08:02:37;;;;;;;2.22;1.67;;;;;;;9.30;72.23;95522.44;5044825;28;20040;-54
2021/03/13 08:05:11;;;;;;;3.15;1.75;;;;;;;9.18;72.13;95512.19;5084966;28;20048;-51
2021/03/13 08:07:58;;;;;;;5.47;1.70;;;;;;;9.38;71.90;95518.00;5055513;28;20549;-56
2021/03/13 08:10:42;;;;;;;1.88;1.67;;;;;;;9.23;70.20;95525.69;5083192;28;20500;-56
2021/03/13 08:13:10;;;;;;;7.35;2.00;;;;;;;9.24;73.31;95511.56;5043512;28;20041;-53
2021/03/13 08:15:45;;;;;;;2.22;1.60;;;;;;;9.26;71.05;95520.13;5085720;28;20048;-57
2021/03/13 08:18:43;;;;;;;2.40;1.70;;;;;;;9.00;70.82;95496.50;5054507;28;20040;-58
2021/03/13 08:21:43;;;;;;;4.88;1.55;;;;;;;9.08;72.31;95514.13;5080605;28;20051;-55
2021/03/13 08:24:13;;;;;;;2.15;1.60;;;;;;;8.89;75.99;95517.00;5042861;28;20469;-57
2021/03/13 08:27:07;;;;;;;3.58;1.80;;;;;;;8.94;75.74;95518.16;5087003;28;20072;-52
2021/03/13 08:29:56;;;;;;;1.90;1.77;;;;;;;9.12;75.88;95515.47;5055035;28;20120;-53
2021/03/13 08:33:04;;;;;;;2.40;1.70;;;;;;;8.76;77.68;95510.38;5084849;28;20139;-54
2021/03/13 08:35:43;;;;;;;3.30;1.70;;;;;;;9.04;73.12;95500.47;5082253;28;20119;-52
2021/03/13 08:38:12;;;;;;;2.08;1.80;;;;;;;8.99;72.92;95502.75;5062015;28;20086;-61
2021/03/13 08:40:46;;;;;;;2.00;1.70;;;;;;;8.89;74.08;95498.59;5085280;28;20098;-50
2021/03/13 08:43:40;;;;;;;3.60;1.95;;;;;;;9.14;72.08;95497.72;5083756;28;20041;-54
2021/03/13 08:46:44;;;;;;;3.53;2.10;;;;;;;9.18;73.52;95499.03;5072772;28;20067;-56
2021/03/13 08:49:13;;;;;;;4.28;2.10;;;;;;;9.04;74.95;95479.44;5009007;28;20044;-56
2021/03/13 08:51:40;;;;;;;5.18;1.90;;;;;;;9.26;74.72;95478.03;5092833;28;20052;-55
2021/03/13 08:54:09;;;;;;;2.65;1.73;;;;;;;9.24;69.20;95477.34;5049295;28;20036;-59
2021/03/13 08:56:40;;;;;;;2.08;1.88;;;;;;;9.26;69.23;95470.13;5092874;28;20036;-56
2021/03/13 08:59:12;;;;;;;3.10;1.60;;;;;;;9.56;66.77;95462.63;5044149;28;20040;-59
2021/03/13 09:01:39;;;;;;;3.08;2.10;;;;;;;9.70;66.16;95450.63;5088953;28;20040;-54
2021/03/13 09:04:07;;;;;;;2.40;1.70;;;;;;;9.73;63.71;95431.84;5055645;28;20089;-59
2021/03/13 09:06:43;;;;;;;1.58;1.35;;;;;;;9.65;59.03;95434.50;5075702;28;20047;-57
2021/03/13 09:09:16;;;;;;;1.73;1.50;;;;;;;10.09;60.82;95423.63;5089671;28;20044;-56
2021/03/13 09:11:45;;;;;;;2.63;1.70;;;;;;;10.15;58.25;95421.16;5068182;28;20043;-57
2021/03/13 09:14:13;;;;;;;3.50;1.88;;;;;;;10.37;57.91;95403.00;5084479;28;20141;-52
2021/03/13 09:16:41;;;;;;;2.53;2.00;;;;;;;10.25;58.26;95405.13;5060876;28;20039;-51
2021/03/13 09:19:13;;;;;;;2.22;1.70;;;;;;;10.14;56.27;95393.13;5081178;28;20090;-55
2021/03/13 09:21:42;;;;;;;3.45;1.60;;;;;;;10.36;55.68;95393.47;5047946;28;20039;-54
2021/03/13 09:24:11;;;;;;;2.35;1.60;;;;;;;10.18;58.14;95383.91;5073253;28;20036;-56
2021/03/13 09:26:39;;;;;;;2.08;1.55;;;;;;;10.47;57.48;95382.53;5046261;28;20036;-57
2021/03/13 09:29:07;;;;;;;4.22;1.70;;;;;;;10.22;56.14;95385.22;5086221;28;20109;-56
2021/03/13 09:31:35;;;;;;;2.97;1.60;;;;;;;10.41;55.22;95370.03;5046152;28;20089;-53
2021/03/13 09:34:20;;;;;;;3.55;1.40;;;;;;;10.63;56.53;95369.31;5087451;28;20048;-54
2021/03/13 09:37:10;;;;;;;1.50;1.40;;;;;;;10.83;55.74;95372.31;5049840;28;20499;-57
2021/03/13 09:39:37;;;;;;;1.95;1.50;;;;;;;10.96;53.93;95366.50;5090092;28;20638;-52
2021/03/13 09:42:09;;;;;;;2.17;1.60;;;;;;;10.36;52.43;95360.03;5046002;28;20051;-56
2021/03/13 09:44:39;;;;;;;2.22;1.50;;;;;;;10.66;53.14;95347.84;5086877;28;20036;-51
2021/03/13 09:47:29;;;;;;;2.63;1.60;;;;;;;10.41;51.43;95352.41;5054084;28;20043;-53
2021/03/13 09:49:58;;;;;;;1.63;1.50;;;;;;;10.52;52.22;95350.41;5076733;28;20424;-57
2021/03/13 09:52:26;;;;;;;2.53;1.70;;;;;;;10.61;52.78;95339.66;5049294;28;20076;-56
2021/03/13 09:55:06;;;;;;;2.20;1.50;;;;;;;10.45;54.80;95356.34;5079955;28;20036;-56
2021/03/13 09:57:34;;;;;;;3.38;1.50;;;;;;;10.73;54.68;95350.63;5045746;28;20158;-58
2021/03/13 10:00:06;;;;;;;2.15;1.50;;;;;;;10.86;51.92;95340.34;5087233;28;20048;-52
2021/03/13 10:02:33;;;;;;;1.35;1.30;;;;;;;10.67;53.60;95341.59;5053471;28;20085;-53
2021/03/13 10:05:01;;;;;;;1.48;1.30;;;;;;;10.91;53.93;95350.38;5085755;28;20673;-57
2021/03/13 10:07:29;;;;;;;2.00;1.58;;;;;;;10.79;55.58;95344.66;5052130;28;20423;-56
2021/03/13 10:09:58;;;;;;;1.50;1.40;;;;;;;10.77;52.40;95341.41;5086047;28;20066;-54
2021/03/13 10:12:27;;;;;;;1.75;1.50;;;;;;;10.83;50.46;95334.59;5043115;28;20032;-53
2021/03/13 10:14:55;;;;;;;1.70;1.60;;;;;;;10.80;53.12;95343.66;5078826;28;20491;-58
2021/03/13 10:17:24;;;;;;;1.55;1.40;;;;;;;10.93;52.89;95329.91;5047277;28;20097;-56
2021/03/13 10:19:52;;;;;;;1.75;1.50;;;;;;;10.89;51.78;95307.53;5083259;28;20040;-57
2021/03/13 10:22:21;;;;;;;2.03;1.60;;;;;;;10.66;52.11;95328.56;5038250;28;20081;-55
2021/03/13 10:24:51;;;;;;;1.52;1.40;;;;;;;10.91;51.75;95329.28;5080676;28;20048;-57
2021/03/13 10:27:26;;;;;;;;;;;;;;;11.23;54.48;95319.50;5058966;28;20052;-60
2021/03/13 10:30:01;;;;;;;3.88;1.30;;;;;;;11.02;52.42;95318.31;5087285;28;19916;-52
2021/03/13 10:32:31;;;;;;;2.10;1.90;;;;;;;10.97;53.14;95344.38;5078387;28;20047;-54
2021/03/13 10:35:17;;;;;;;1.75;1.23;;;;;;;11.08;54.57;95316.78;5049318;28;20079;-57
2021/03/13 10:37:54;;;;;;;2.75;1.50;;;;;;;10.92;53.08;95315.09;5043227;28;20471;-53
2021/03/13 10:40:36;;;;;;;2.30;1.60;;;;;;;11.06;53.10;95313.50;5080229;28;20097;-55
2021/03/13 10:43:31;;;;;;;1.88;1.35;;;;;;;11.09;53.56;95307.88;5031535;28;20059;-55
2021/03/13 10:46:08;;;;;;;2.35;1.65;;;;;;;10.83;54.09;95292.41;5079527;28;20044;-58
2021/03/13 10:48:38;;;;;;;1.45;1.20;;;;;;;10.92;54.12;95291.34;5043200;28;20036;-55
2021/03/13 10:51:05;;;;;;;1.30;1.20;;;;;;;11.12;54.39;95297.81;5072698;28;20043;-51
2021/03/13 10:53:34;;;;;;;3.88;1.48;;;;;;;11.17;54.61;95308.63;5052893;28;20050;-54
2021/03/13 10:56:03;;;;;;;1.40;1.30;;;;;;;11.02;57.77;95291.94;5089354;28;20422;-56
2021/03/13 10:58:32;;;;;;;2.45;1.90;;;;;;;10.83;56.82;95290.56;5074255;28;20461;-60
2021/03/13 11:01:00;;;;;;;2.35;1.92;;;;;;;11.14;54.32;95279.97;5071778;28;20052;-59
2021/03/13 11:03:27;;;;;;;2.00;1.80;;;;;;;11.02;55.25;95273.47;5084182;28;20109;-54
2021/03/13 11:05:56;;;;;;;2.20;1.40;;;;;;;10.99;58.29;95275.66;5043633;28;20036;-56
2021/03/13 11:08:25;;;;;;;2.38;1.55;;;;;;;11.33;52.77;95276.03;5084966;28;20040;-53
2021/03/13 11:10:53;;;;;;;2.03;1.40;;;;;;;11.54;55.30;95277.97;5049905;28;20051;-54
2021/03/13 11:13:21;;;;;;;2.50;1.40;;;;;;;11.30;54.31;95280.84;5092537;28;20596;-53
2021/03/13 11:15:49;;;;;;;2.63;1.58;;;;;;;11.97;54.15;95274.75;5046042;28;20051;-54
2021/03/13 11:18:34;;;;;;;1.45;1.35;;;;;;;11.63;51.23;95263.72;5081524;28;20123;-52
2021/03/13 11:21:02;;;;;;;1.38;1.27;;;;;;;11.77;48.93;95263.91;5046118;28;20507;-56
2021/03/13 11:23:29;;;;;;;1.63;1.50;;;;;;;12.01;49.21;95270.75;5073608;28;20044;-55
2021/03/13 11:25:57;;;;;;;3.10;1.60;;;;;;;11.86;46.79;95246.97;5019980;28;20044;-57
2021/03/13 11:28:24;;;;;;;2.33;1.40;;;;;;;11.72;48.57;95245.94;5079821;28;20067;-54
2021/03/13 11:30:51;;;;;;;2.20;1.38;;;;;;;11.82;46.95;95235.94;5043023;28;20068;-58
2021/03/13 11:33:18;;;;;;;2.22;1.50;;;;;;;12.13;46.93;95234.13;5083226;28;20116;-53
2021/03/13 11:35:45;;;;;;;1.50;1.40;;;;;;;12.14;47.71;95238.41;5047174;28;20075;-53
2021/03/13 11:38:31;;;;;;;1.77;1.40;;;;;;;11.99;48.07;95231.31;5085631;28;20085;-56
2021/03/13 11:40:58;;;;;;;1.52;1.30;;;;;;;11.98;46.42;95219.13;5053300;28;20053;-54
2021/03/13 11:43:25;;;;;;;2.88;1.63;;;;;;;12.16;46.59;95210.78;5092725;28;21888;-59
2021/03/13 11:45:52;;;;;;;2.20;1.40;;;;;;;12.14;47.11;95206.69;5055799;28;20052;-53
2021/03/13 11:48:20;;;;;;;1.55;1.30;;;;;;;12.19;45.78;95199.03;5086841;28;20076;-54
2021/03/13 11:50:48;;;;;;;1.45;1.33;;;;;;;12.13;44.01;95190.03;5040173;28;20052;-52
2021/03/13 11:53:15;;;;;;;1.60;1.50;;;;;;;12.44;45.33;95175.72;5085604;28;20097;-55